sensor_id;sensor_type;location;lat;lon;timestamp;temperature;humidity
3896;DHT22;1963;48.804;8.358;2023-02-27T05:37:03;-1.50;84.60
3896;DHT22;1963;48.804;8.358;2023-02-27T05:39:33;-1.50;84.50
3896;DHT22;1963;48.804;8.358;2023-02-27T05:42:07;-1.50;84.60
3896;DHT22;1963;48.804;8.358;2023-02-27T05:44:39;-1.60;84.80
3896;DHT22;1963;48.804;8.358;2023-02-27T05:47:12;-1.60;84.70
3896;DHT22;1963;48.804;8.358;2023-02-27T05:49:44;-1.60;85.10
3896;DHT22;1963;48.804;8.358;2023-02-27T05:52:16;-1.60;84.80
3896;DHT22;1963;48.804;8.358;2023-02-27T05:54:50;-1.70;85.00
3896;DHT22;1963;48.804;8.358;2023-02-27T05:57:22;-1.70;85.10
3896;DHT22;1963;48.804;8.358;2023-02-27T05:59:54;-1.70;85.40
3896;DHT22;1963;48.804;8.358;2023-02-27T06:02:25;-1.70;85.30
3896;DHT22;1963;48.804;8.358;2023-02-27T06:04:53;-1.70;85.40
3896;DHT22;1963;48.804;8.358;2023-02-27T06:07:23;-1.70;85.50
3896;DHT22;1963;48.804;8.358;2023-02-27T06:09:51;-1.70;85.80
3896;DHT22;1963;48.804;8.358;2023-02-27T06:12:18;-1.60;85.70
3896;DHT22;1963;48.804;8.358;2023-02-27T06:14:46;-1.70;85.30
3896;DHT22;1963;48.804;8.358;2023-02-27T06:17:14;-1.70;85.60
3896;DHT22;1963;48.804;8.358;2023-02-27T06:19:42;-1.60;85.60
3896;DHT22;1963;48.804;8.358;2023-02-27T06:22:10;-1.70;85.30
3896;DHT22;1963;48.804;8.358;2023-02-27T06:24:39;-1.70;85.50
3896;DHT22;1963;48.804;8.358;2023-02-27T06:27:07;-1.60;85.60
3896;DHT22;1963;48.804;8.358;2023-02-27T06:29:35;-1.60;85.20
3896;DHT22;1963;48.804;8.358;2023-02-27T06:32:03;-1.60;85.30
3896;DHT22;1963;48.804;8.358;2023-02-27T06:34:31;-1.60;85.00
3896;DHT22;1963;48.804;8.358;2023-02-27T06:36:59;-1.70;85.00
3896;DHT22;1963;48.804;8.358;2023-02-27T06:39:29;-1.70;85.80
3896;DHT22;1963;48.804;8.358;2023-02-27T06:41:59;-1.70;85.30
3896;DHT22;1963;48.804;8.358;2023-02-27T06:44:27;-1.60;85.10
3896;DHT22;1963;48.804;8.358;2023-02-27T06:46:55;-1.50;85.30
3896;DHT22;1963;48.804;8.358;2023-02-27T06:49:23;-1.60;85.30
3896;DHT22;1963;48.804;8.358;2023-02-27T06:51:51;-1.60;85.40
3896;DHT22;1963;48.804;8.358;2023-02-27T06:54:19;-1.60;85.60
3896;DHT22;1963;48.804;8.358;2023-02-27T06:56:47;-1.60;85.60
3896;DHT22;1963;48.804;8.358;2023-02-27T06:59:18;-1.60;85.60
3896;DHT22;1963;48.804;8.358;2023-02-27T07:01:46;-1.60;85.50
3896;DHT22;1963;48.804;8.358;2023-02-27T07:04:15;-1.50;85.30
3896;DHT22;1963;48.804;8.358;2023-02-27T07:06:43;-1.40;85.10
3896;DHT22;1963;48.804;8.358;2023-02-27T07:09:32;-1.50;85.30
3896;DHT22;1963;48.804;8.358;2023-02-27T07:12:01;-1.50;85.10
3896;DHT22;1963;48.804;8.358;2023-02-27T07:14:31;-1.50;85.20
3896;DHT22;1963;48.804;8.358;2023-02-27T07:16:59;-1.30;85.30
3896;DHT22;1963;48.804;8.358;2023-02-27T07:19:30;-1.40;85.30
3896;DHT22;1963;48.804;8.358;2023-02-27T07:21:59;-1.40;85.10
3896;DHT22;1963;48.804;8.358;2023-02-27T07:24:27;-1.40;84.90
3896;DHT22;1963;48.804;8.358;2023-02-27T07:26:54;-1.40;85.00
3896;DHT22;1963;48.804;8.358;2023-02-27T07:29:22;-1.20;85.90
3896;DHT22;1963;48.804;8.358;2023-02-27T07:31:52;-0.80;87.10
3896;DHT22;1963;48.804;8.358;2023-02-27T07:34:20;-0.20;85.50
3896;DHT22;1963;48.804;8.358;2023-02-27T07:36:47;0.30;85.90
3896;DHT22;1963;48.804;8.358;2023-02-27T07:39:15;0.80;84.80
3896;DHT22;1963;48.804;8.358;2023-02-27T07:41:43;1.30;84.00
3896;DHT22;1963;48.804;8.358;2023-02-27T07:44:11;1.80;85.60
3896;DHT22;1963;48.804;8.358;2023-02-27T07:46:39;2.30;83.00
3896;DHT22;1963;48.804;8.358;2023-02-27T07:49:09;2.90;84.00
3896;DHT22;1963;48.804;8.358;2023-02-27T07:51:37;3.30;78.10
3896;DHT22;1963;48.804;8.358;2023-02-27T07:54:05;3.40;76.40
3896;DHT22;1963;48.804;8.358;2023-02-27T07:56:32;3.80;79.10
3896;DHT22;1963;48.804;8.358;2023-02-27T07:59:00;4.00;75.70
3896;DHT22;1963;48.804;8.358;2023-02-27T08:01:28;4.10;74.70
3896;DHT22;1963;48.804;8.358;2023-02-27T08:03:56;4.40;76.00
3896;DHT22;1963;48.804;8.358;2023-02-27T08:06:26;4.70;71.90
3896;DHT22;1963;48.804;8.358;2023-02-27T08:08:54;4.80;72.60
3896;DHT22;1963;48.804;8.358;2023-02-27T08:11:22;4.90;70.30
3896;DHT22;1963;48.804;8.358;2023-02-27T08:13:50;5.30;73.20
3896;DHT22;1963;48.804;8.358;2023-02-27T08:16:26;5.50;70.80
3896;DHT22;1963;48.804;8.358;2023-02-27T08:18:55;5.70;69.60
3896;DHT22;1963;48.804;8.358;2023-02-27T08:21:23;5.50;69.90
3896;DHT22;1963;48.804;8.358;2023-02-27T08:23:53;5.90;69.60
3896;DHT22;1963;48.804;8.358;2023-02-27T08:26:21;6.20;69.30
3896;DHT22;1963;48.804;8.358;2023-02-27T08:28:49;6.70;72.00
3896;DHT22;1963;48.804;8.358;2023-02-27T08:31:17;7.30;74.10
3896;DHT22;1963;48.804;8.358;2023-02-27T08:33:45;7.80;70.80
3896;DHT22;1963;48.804;8.358;2023-02-27T08:36:15;8.30;70.80
3896;DHT22;1963;48.804;8.358;2023-02-27T08:38:43;8.40;66.10
3896;DHT22;1963;48.804;8.358;2023-02-27T08:41:12;8.60;67.00
3896;DHT22;1963;48.804;8.358;2023-02-27T08:43:40;9.20;66.80
3896;DHT22;1963;48.804;8.358;2023-02-27T08:46:08;8.80;62.60
3896;DHT22;1963;48.804;8.358;2023-02-27T08:48:36;9.20;63.80
3896;DHT22;1963;48.804;8.358;2023-02-27T08:51:05;9.00;60.10
3896;DHT22;1963;48.804;8.358;2023-02-27T08:53:33;9.20;64.50
3896;DHT22;1963;48.804;8.358;2023-02-27T08:56:01;9.50;61.00
3896;DHT22;1963;48.804;8.358;2023-02-27T08:58:30;9.40;61.00
3896;DHT22;1963;48.804;8.358;2023-02-27T09:00:58;9.10;59.70
3896;DHT22;1963;48.804;8.358;2023-02-27T09:03:26;9.60;60.30
3896;DHT22;1963;48.804;8.358;2023-02-27T09:05:55;9.90;64.00
3896;DHT22;1963;48.804;8.358;2023-02-27T09:08:23;10.60;59.40
3896;DHT22;1963;48.804;8.358;2023-02-27T09:10:54;9.50;55.40
3896;DHT22;1963;48.804;8.358;2023-02-27T09:13:23;9.90;57.10
3896;DHT22;1963;48.804;8.358;2023-02-27T09:15:54;9.90;61.70
3896;DHT22;1963;48.804;8.358;2023-02-27T09:18:22;10.80;62.30
3896;DHT22;1963;48.804;8.358;2023-02-27T09:20:50;11.30;60.30
3896;DHT22;1963;48.804;8.358;2023-02-27T09:23:19;11.70;57.30
3896;DHT22;1963;48.804;8.358;2023-02-27T09:25:47;11.70;61.00
3896;DHT22;1963;48.804;8.358;2023-02-27T09:28:15;11.20;52.40
3896;DHT22;1963;48.804;8.358;2023-02-27T09:30:42;11.40;57.70
3896;DHT22;1963;48.804;8.358;2023-02-27T09:33:12;11.70;58.10
3896;DHT22;1963;48.804;8.358;2023-02-27T09:35:40;12.20;56.10
3896;DHT22;1963;48.804;8.358;2023-02-27T09:38:08;11.40;48.60
3896;DHT22;1963;48.804;8.358;2023-02-27T09:40:39;11.40;52.20
3896;DHT22;1963;48.804;8.358;2023-02-27T09:43:10;10.90;48.50
3896;DHT22;1963;48.804;8.358;2023-02-27T09:45:42;10.80;50.10
3896;DHT22;1963;48.804;8.358;2023-02-27T09:48:19;11.30;53.20
3896;DHT22;1963;48.804;8.358;2023-02-27T09:50:49;11.40;49.90
3896;DHT22;1963;48.804;8.358;2023-02-27T09:53:22;11.50;49.90
3896;DHT22;1963;48.804;8.358;2023-02-27T09:55:53;11.20;48.20
3896;DHT22;1963;48.804;8.358;2023-02-27T09:58:42;11.00;46.90
3896;DHT22;1963;48.804;8.358;2023-02-27T10:01:17;11.10;47.90
3896;DHT22;1963;48.804;8.358;2023-02-27T10:04:26;11.00;49.70
3896;DHT22;1963;48.804;8.358;2023-02-27T10:07:00;11.50;50.00
3896;DHT22;1963;48.804;8.358;2023-02-27T10:09:36;11.00;47.00
3896;DHT22;1963;48.804;8.358;2023-02-27T10:12:19;10.60;46.40
3896;DHT22;1963;48.804;8.358;2023-02-27T10:14:51;10.10;46.50
3896;DHT22;1963;48.804;8.358;2023-02-27T10:17:22;9.60;47.60
3896;DHT22;1963;48.804;8.358;2023-02-27T10:19:53;9.50;48.10
3896;DHT22;1963;48.804;8.358;2023-02-27T10:22:25;9.00;47.80
3896;DHT22;1963;48.804;8.358;2023-02-27T10:24:57;8.80;47.90
3896;DHT22;1963;48.804;8.358;2023-02-27T10:27:29;8.30;47.20
3896;DHT22;1963;48.804;8.358;2023-02-27T10:30:13;7.80;47.90
3896;DHT22;1963;48.804;8.358;2023-02-27T10:32:58;7.80;50.40
3896;DHT22;1963;48.804;8.358;2023-02-27T10:35:33;7.60;48.40
3896;DHT22;1963;48.804;8.358;2023-02-27T10:38:04;7.70;48.70
3896;DHT22;1963;48.804;8.358;2023-02-27T10:40:34;7.50;47.90
3896;DHT22;1963;48.804;8.358;2023-02-27T10:43:04;7.30;49.50
3896;DHT22;1963;48.804;8.358;2023-02-27T10:45:32;7.40;49.10
3896;DHT22;1963;48.804;8.358;2023-02-27T10:48:04;7.10;48.90
3896;DHT22;1963;48.804;8.358;2023-02-27T10:50:36;6.70;49.00
3896;DHT22;1963;48.804;8.358;2023-02-27T10:53:15;5.90;49.40
3896;DHT22;1963;48.804;8.358;2023-02-27T10:55:47;6.00;50.80
3896;DHT22;1963;48.804;8.358;2023-02-27T10:58:24;5.90;50.10
3896;DHT22;1963;48.804;8.358;2023-02-27T11:00:55;5.90;50.70
3896;DHT22;1963;48.804;8.358;2023-02-27T11:03:25;6.00;50.20
3896;DHT22;1963;48.804;8.358;2023-02-27T11:05:57;6.00;50.30
3896;DHT22;1963;48.804;8.358;2023-02-27T11:08:29;6.00;49.80
3896;DHT22;1963;48.804;8.358;2023-02-27T11:11:02;6.00;50.30
3896;DHT22;1963;48.804;8.358;2023-02-27T11:13:32;6.30;51.00
3896;DHT22;1963;48.804;8.358;2023-02-27T11:16:07;6.50;50.90
3896;DHT22;1963;48.804;8.358;2023-02-27T11:18:36;6.50;49.50
3896;DHT22;1963;48.804;8.358;2023-02-27T11:21:17;6.90;50.00
3896;DHT22;1963;48.804;8.358;2023-02-27T11:23:51;6.80;48.40
3896;DHT22;1963;48.804;8.358;2023-02-27T11:26:23;6.60;48.30
3896;DHT22;1963;48.804;8.358;2023-02-27T11:29:03;6.70;48.50
3896;DHT22;1963;48.804;8.358;2023-02-27T11:31:33;6.70;49.40
3896;DHT22;1963;48.804;8.358;2023-02-27T11:34:02;6.90;50.30
3896;DHT22;1963;48.804;8.358;2023-02-27T20:13:53;1.90;56.50
3896;DHT22;1963;48.804;8.358;2023-02-27T20:16:22;1.90;55.50
3896;DHT22;1963;48.804;8.358;2023-02-27T20:18:54;1.90;54.90
3896;DHT22;1963;48.804;8.358;2023-02-27T20:21:23;1.90;54.60
3896;DHT22;1963;48.804;8.358;2023-02-27T20:23:52;1.80;53.70
3896;DHT22;1963;48.804;8.358;2023-02-27T20:26:22;1.90;53.70
3896;DHT22;1963;48.804;8.358;2023-02-27T20:28:51;1.90;54.00
3896;DHT22;1963;48.804;8.358;2023-02-27T20:31:24;2.00;54.00
3896;DHT22;1963;48.804;8.358;2023-02-27T20:33:55;1.90;53.90
3896;DHT22;1963;48.804;8.358;2023-02-27T20:36:23;2.00;53.90
3896;DHT22;1963;48.804;8.358;2023-02-27T20:38:51;1.90;53.60
3896;DHT22;1963;48.804;8.358;2023-02-27T20:41:21;1.80;53.10
3896;DHT22;1963;48.804;8.358;2023-02-27T20:43:49;1.70;53.50
3896;DHT22;1963;48.804;8.358;2023-02-27T20:46:18;1.70;52.50
3896;DHT22;1963;48.804;8.358;2023-02-27T20:48:48;1.60;51.90
3896;DHT22;1963;48.804;8.358;2023-02-27T20:51:18;1.60;52.20
3896;DHT22;1963;48.804;8.358;2023-02-27T20:53:48;1.40;52.40
3896;DHT22;1963;48.804;8.358;2023-02-27T20:56:18;1.30;53.00
3896;DHT22;1963;48.804;8.358;2023-02-27T20:58:46;1.30;52.70
3896;DHT22;1963;48.804;8.358;2023-02-27T21:01:15;1.30;52.70
3896;DHT22;1963;48.804;8.358;2023-02-27T21:03:44;1.20;52.80
3896;DHT22;1963;48.804;8.358;2023-02-27T21:06:16;1.10;53.00
3896;DHT22;1963;48.804;8.358;2023-02-27T21:08:46;1.20;53.30
3896;DHT22;1963;48.804;8.358;2023-02-27T21:11:16;1.20;53.80
3896;DHT22;1963;48.804;8.358;2023-02-27T21:13:45;1.10;53.50
3896;DHT22;1963;48.804;8.358;2023-02-27T21:16:14;1.00;53.40
3896;DHT22;1963;48.804;8.358;2023-02-27T21:18:43;1.00;53.80
3896;DHT22;1963;48.804;8.358;2023-02-27T21:21:15;0.90;53.70
3896;DHT22;1963;48.804;8.358;2023-02-27T21:23:44;0.90;53.70
3896;DHT22;1963;48.804;8.358;2023-02-27T21:26:16;0.80;53.40
3896;DHT22;1963;48.804;8.358;2023-02-27T21:28:47;0.90;53.70
3896;DHT22;1963;48.804;8.358;2023-02-27T21:31:19;0.90;53.70
3896;DHT22;1963;48.804;8.358;2023-02-27T21:33:48;0.80;53.60
3896;DHT22;1963;48.804;8.358;2023-02-27T21:36:23;0.80;53.80
3896;DHT22;1963;48.804;8.358;2023-02-27T21:38:54;0.70;54.30
3896;DHT22;1963;48.804;8.358;2023-02-27T21:41:22;0.70;53.80
3896;DHT22;1963;48.804;8.358;2023-02-27T21:43:50;0.70;54.20
3896;DHT22;1963;48.804;8.358;2023-02-27T21:46:18;0.60;54.50
3896;DHT22;1963;48.804;8.358;2023-02-27T21:48:47;0.60;54.30
3896;DHT22;1963;48.804;8.358;2023-02-27T21:51:14;0.60;54.50
3896;DHT22;1963;48.804;8.358;2023-02-27T21:53:57;0.50;54.30
3896;DHT22;1963;48.804;8.358;2023-02-27T21:56:26;0.50;54.30
3896;DHT22;1963;48.804;8.358;2023-02-27T21:58:55;0.40;54.80
3896;DHT22;1963;48.804;8.358;2023-02-27T22:01:25;0.40;54.90
3896;DHT22;1963;48.804;8.358;2023-02-27T22:03:54;0.50;54.70
3896;DHT22;1963;48.804;8.358;2023-02-27T22:06:24;0.50;54.70
3896;DHT22;1963;48.804;8.358;2023-02-27T22:08:54;0.50;54.60
3896;DHT22;1963;48.804;8.358;2023-02-27T22:11:24;0.40;54.90
3896;DHT22;1963;48.804;8.358;2023-02-27T22:13:53;0.40;54.60
3896;DHT22;1963;48.804;8.358;2023-02-27T22:16:21;0.40;54.70
3896;DHT22;1963;48.804;8.358;2023-02-27T22:18:49;0.50;55.40
3896;DHT22;1963;48.804;8.358;2023-02-27T22:21:20;0.40;55.10
3896;DHT22;1963;48.804;8.358;2023-02-27T22:23:48;0.30;55.10
3896;DHT22;1963;48.804;8.358;2023-02-27T22:26:17;0.30;55.30
3896;DHT22;1963;48.804;8.358;2023-02-27T22:28:47;0.20;55.10
3896;DHT22;1963;48.804;8.358;2023-02-27T22:31:17;0.20;55.30
3896;DHT22;1963;48.804;8.358;2023-02-27T22:33:46;0.20;55.10
3896;DHT22;1963;48.804;8.358;2023-02-27T22:36:16;0.20;55.60
3896;DHT22;1963;48.804;8.358;2023-02-27T22:38:44;0.20;55.60
3896;DHT22;1963;48.804;8.358;2023-02-27T22:41:14;0.20;55.60
3896;DHT22;1963;48.804;8.358;2023-02-27T22:43:42;0.20;55.60
3896;DHT22;1963;48.804;8.358;2023-02-27T22:46:14;0.20;55.80
3896;DHT22;1963;48.804;8.358;2023-02-27T22:48:43;0.10;55.70
3896;DHT22;1963;48.804;8.358;2023-02-27T22:51:13;0.10;56.20
3896;DHT22;1963;48.804;8.358;2023-02-27T22:53:41;0.10;55.90
3896;DHT22;1963;48.804;8.358;2023-02-27T22:56:13;0.10;56.20
3896;DHT22;1963;48.804;8.358;2023-02-27T22:58:43;0.00;56.20
3896;DHT22;1963;48.804;8.358;2023-02-27T23:01:13;0.00;56.20
3896;DHT22;1963;48.804;8.358;2023-02-27T23:03:43;0.00;56.30
3896;DHT22;1963;48.804;8.358;2023-02-27T23:06:13;0.00;56.60
3896;DHT22;1963;48.804;8.358;2023-02-27T23:08:42;0.00;56.80
3896;DHT22;1963;48.804;8.358;2023-02-27T23:11:15;0.00;56.50
3896;DHT22;1963;48.804;8.358;2023-02-27T23:13:43;0.00;57.00
3896;DHT22;1963;48.804;8.358;2023-02-27T23:16:13;0.00;56.80
3896;DHT22;1963;48.804;8.358;2023-02-27T23:18:44;0.00;56.40
3896;DHT22;1963;48.804;8.358;2023-02-27T23:21:13;0.00;56.70
3896;DHT22;1963;48.804;8.358;2023-02-27T23:23:41;0.00;56.60
3896;DHT22;1963;48.804;8.358;2023-02-27T23:26:10;0.00;56.70
3896;DHT22;1963;48.804;8.358;2023-02-27T23:28:38;0.10;56.60
3896;DHT22;1963;48.804;8.358;2023-02-27T23:31:07;0.00;56.40
3896;DHT22;1963;48.804;8.358;2023-02-27T23:33:37;0.00;57.00
3896;DHT22;1963;48.804;8.358;2023-02-27T23:36:05;0.00;57.00
3896;DHT22;1963;48.804;8.358;2023-02-27T23:38:33;0.00;57.10
3896;DHT22;1963;48.804;8.358;2023-02-27T23:41:05;0.00;56.90
3896;DHT22;1963;48.804;8.358;2023-02-27T23:43:33;0.00;56.80
3896;DHT22;1963;48.804;8.358;2023-02-27T23:46:05;-0.10;57.00
3896;DHT22;1963;48.804;8.358;2023-02-27T23:48:33;-0.10;56.70
3896;DHT22;1963;48.804;8.358;2023-02-27T23:51:04;-0.20;57.40
3896;DHT22;1963;48.804;8.358;2023-02-27T23:53:33;-0.10;57.10
3896;DHT22;1963;48.804;8.358;2023-02-27T23:56:11;-0.20;57.20
3896;DHT22;1963;48.804;8.358;2023-02-27T23:58:39;-0.20;58.00
